sensor_id;sensor_type;location;lat;lon;timestamp;temperature;humidity
12688;DHT22;6408;59.388;17.798;2023-04-24T00:00:39;7.30;99.90
12688;DHT22;6408;59.388;17.798;2023-04-24T00:03:07;7.20;99.90
12688;DHT22;6408;59.388;17.798;2023-04-24T00:05:35;7.30;99.90
12688;DHT22;6408;59.388;17.798;2023-04-24T00:08:02;7.20;99.90
12688;DHT22;6408;59.388;17.798;2023-04-24T00:10:30;7.20;99.90
12688;DHT22;6408;59.388;17.798;2023-04-24T00:12:57;7.10;99.90
12688;DHT22;6408;59.388;17.798;2023-04-24T00:15:25;7.10;99.90
12688;DHT22;6408;59.388;17.798;2023-04-24T00:17:54;7.10;99.90
12688;DHT22;6408;59.388;17.798;2023-04-24T00:20:21;7.20;99.90
12688;DHT22;6408;59.388;17.798;2023-04-24T00:22:49;7.10;99.90
12688;DHT22;6408;59.388;17.798;2023-04-24T00:25:16;7.10;99.90
12688;DHT22;6408;59.388;17.798;2023-04-24T00:27:44;7.20;99.90
12688;DHT22;6408;59.388;17.798;2023-04-24T00:30:12;7.10;99.90
12688;DHT22;6408;59.388;17.798;2023-04-24T00:32:39;7.10;99.90
12688;DHT22;6408;59.388;17.798;2023-04-24T00:35:09;7.00;99.90
12688;DHT22;6408;59.388;17.798;2023-04-24T00:37:37;7.00;99.90
12688;DHT22;6408;59.388;17.798;2023-04-24T00:40:06;6.90;99.90
12688;DHT22;6408;59.388;17.798;2023-04-24T00:42:34;6.90;99.90
12688;DHT22;6408;59.388;17.798;2023-04-24T00:45:02;6.90;99.90
12688;DHT22;6408;59.388;17.798;2023-04-24T00:47:30;6.90;99.90
12688;DHT22;6408;59.388;17.798;2023-04-24T00:50:01;6.90;99.90
12688;DHT22;6408;59.388;17.798;2023-04-24T00:52:30;6.90;99.90
12688;DHT22;6408;59.388;17.798;2023-04-24T00:54:58;6.90;99.90
12688;DHT22;6408;59.388;17.798;2023-04-24T00:57:26;6.90;99.90
12688;DHT22;6408;59.388;17.798;2023-04-24T00:59:54;6.90;99.90
12688;DHT22;6408;59.388;17.798;2023-04-24T01:02:22;6.80;99.90
12688;DHT22;6408;59.388;17.798;2023-04-24T01:04:51;6.80;99.90
12688;DHT22;6408;59.388;17.798;2023-04-24T01:07:20;6.70;99.90
12688;DHT22;6408;59.388;17.798;2023-04-24T01:09:50;6.80;99.90
12688;DHT22;6408;59.388;17.798;2023-04-24T01:12:18;6.80;99.90
12688;DHT22;6408;59.388;17.798;2023-04-24T01:14:45;6.80;99.90
12688;DHT22;6408;59.388;17.798;2023-04-24T01:17:13;6.80;99.90
12688;DHT22;6408;59.388;17.798;2023-04-24T01:19:40;6.80;99.90
12688;DHT22;6408;59.388;17.798;2023-04-24T01:22:13;6.70;99.90
12688;DHT22;6408;59.388;17.798;2023-04-24T01:24:42;6.80;99.90
12688;DHT22;6408;59.388;17.798;2023-04-24T01:27:11;6.70;99.90
12688;DHT22;6408;59.388;17.798;2023-04-24T01:29:39;6.60;99.90
12688;DHT22;6408;59.388;17.798;2023-04-24T01:32:07;6.50;99.90
12688;DHT22;6408;59.388;17.798;2023-04-24T01:34:34;6.50;99.90
12688;DHT22;6408;59.388;17.798;2023-04-24T01:37:02;6.50;99.90
12688;DHT22;6408;59.388;17.798;2023-04-24T01:39:32;6.50;99.90
12688;DHT22;6408;59.388;17.798;2023-04-24T01:42:00;6.50;99.90
12688;DHT22;6408;59.388;17.798;2023-04-24T01:44:28;6.40;99.90
12688;DHT22;6408;59.388;17.798;2023-04-24T01:46:55;6.50;99.90
12688;DHT22;6408;59.388;17.798;2023-04-24T01:49:23;6.50;99.90
12688;DHT22;6408;59.388;17.798;2023-04-24T01:51:50;6.50;99.90
12688;DHT22;6408;59.388;17.798;2023-04-24T01:54:18;6.50;99.90
12688;DHT22;6408;59.388;17.798;2023-04-24T01:56:47;6.50;99.90
12688;DHT22;6408;59.388;17.798;2023-04-24T01:59:15;6.50;99.90
12688;DHT22;6408;59.388;17.798;2023-04-24T02:01:44;6.50;99.90
12688;DHT22;6408;59.388;17.798;2023-04-24T02:04:11;6.40;99.90
12688;DHT22;6408;59.388;17.798;2023-04-24T02:06:39;6.40;99.90
12688;DHT22;6408;59.388;17.798;2023-04-24T02:09:07;6.40;99.90
12688;DHT22;6408;59.388;17.798;2023-04-24T02:11:36;6.40;99.90
12688;DHT22;6408;59.388;17.798;2023-04-24T02:14:05;6.40;99.90
12688;DHT22;6408;59.388;17.798;2023-04-24T02:16:32;6.40;99.90
12688;DHT22;6408;59.388;17.798;2023-04-24T02:19:01;6.40;99.90
12688;DHT22;6408;59.388;17.798;2023-04-24T02:21:29;6.40;99.90
12688;DHT22;6408;59.388;17.798;2023-04-24T02:23:57;6.40;99.90
12688;DHT22;6408;59.388;17.798;2023-04-24T02:26:24;6.30;99.90
12688;DHT22;6408;59.388;17.798;2023-04-24T02:28:52;6.30;99.90
12688;DHT22;6408;59.388;17.798;2023-04-24T02:31:20;6.40;99.90
12688;DHT22;6408;59.388;17.798;2023-04-24T02:33:48;6.40;99.90
12688;DHT22;6408;59.388;17.798;2023-04-24T02:36:15;6.30;99.90
12688;DHT22;6408;59.388;17.798;2023-04-24T02:38:43;6.30;99.90
12688;DHT22;6408;59.388;17.798;2023-04-24T02:41:11;6.30;99.90
12688;DHT22;6408;59.388;17.798;2023-04-24T02:43:38;6.20;99.90
12688;DHT22;6408;59.388;17.798;2023-04-24T02:46:06;6.10;99.90
12688;DHT22;6408;59.388;17.798;2023-04-24T02:48:35;6.20;99.90
12688;DHT22;6408;59.388;17.798;2023-04-24T02:51:03;6.20;99.90
12688;DHT22;6408;59.388;17.798;2023-04-24T02:53:30;6.20;99.90
12688;DHT22;6408;59.388;17.798;2023-04-24T02:55:58;6.30;99.90
12688;DHT22;6408;59.388;17.798;2023-04-24T02:58:25;6.20;99.90
12688;DHT22;6408;59.388;17.798;2023-04-24T03:00:54;6.10;99.90
12688;DHT22;6408;59.388;17.798;2023-04-24T03:03:22;5.90;99.90
12688;DHT22;6408;59.388;17.798;2023-04-24T03:05:51;5.90;99.90
12688;DHT22;6408;59.388;17.798;2023-04-24T03:08:19;5.90;99.90
12688;DHT22;6408;59.388;17.798;2023-04-24T03:10:46;5.80;99.90
12688;DHT22;6408;59.388;17.798;2023-04-24T03:13:14;5.80;99.90
12688;DHT22;6408;59.388;17.798;2023-04-24T03:15:42;5.80;99.90
12688;DHT22;6408;59.388;17.798;2023-04-24T03:18:10;5.80;99.90
12688;DHT22;6408;59.388;17.798;2023-04-24T03:20:38;5.80;99.90
12688;DHT22;6408;59.388;17.798;2023-04-24T03:23:07;5.80;99.90
12688;DHT22;6408;59.388;17.798;2023-04-24T03:25:34;5.70;99.90
12688;DHT22;6408;59.388;17.798;2023-04-24T03:28:02;5.70;99.90
12688;DHT22;6408;59.388;17.798;2023-04-24T03:30:29;5.70;99.90
12688;DHT22;6408;59.388;17.798;2023-04-24T03:32:57;5.70;99.90
12688;DHT22;6408;59.388;17.798;2023-04-24T03:35:25;5.70;99.90
12688;DHT22;6408;59.388;17.798;2023-04-24T03:37:52;5.80;99.90
12688;DHT22;6408;59.388;17.798;2023-04-24T03:40:21;5.70;99.90
12688;DHT22;6408;59.388;17.798;2023-04-24T03:42:48;5.70;99.90
12688;DHT22;6408;59.388;17.798;2023-04-24T03:45:16;5.60;99.90
12688;DHT22;6408;59.388;17.798;2023-04-24T03:47:43;5.70;99.90
12688;DHT22;6408;59.388;17.798;2023-04-24T03:50:11;5.70;99.90
12688;DHT22;6408;59.388;17.798;2023-04-24T03:52:38;5.60;99.90
12688;DHT22;6408;59.388;17.798;2023-04-24T03:55:07;5.70;99.90
12688;DHT22;6408;59.388;17.798;2023-04-24T03:57:36;5.60;99.90
12688;DHT22;6408;59.388;17.798;2023-04-24T04:00:04;5.50;99.90
12688;DHT22;6408;59.388;17.798;2023-04-24T04:02:32;5.50;99.90
12688;DHT22;6408;59.388;17.798;2023-04-24T04:05:00;5.50;99.90
12688;DHT22;6408;59.388;17.798;2023-04-24T04:07:28;5.60;99.90
12688;DHT22;6408;59.388;17.798;2023-04-24T04:09:56;5.60;99.90
12688;DHT22;6408;59.388;17.798;2023-04-24T04:12:23;5.60;99.90
12688;DHT22;6408;59.388;17.798;2023-04-24T04:14:52;5.70;99.90
12688;DHT22;6408;59.388;17.798;2023-04-24T04:17:20;5.70;99.90
12688;DHT22;6408;59.388;17.798;2023-04-24T04:19:47;5.80;99.90
12688;DHT22;6408;59.388;17.798;2023-04-24T04:22:15;5.80;99.90
12688;DHT22;6408;59.388;17.798;2023-04-24T04:24:42;5.80;99.90
12688;DHT22;6408;59.388;17.798;2023-04-24T04:27:11;5.80;99.90
12688;DHT22;6408;59.388;17.798;2023-04-24T04:29:39;5.80;99.90
12688;DHT22;6408;59.388;17.798;2023-04-24T04:32:09;5.80;99.90
12688;DHT22;6408;59.388;17.798;2023-04-24T04:34:36;5.70;99.90
12688;DHT22;6408;59.388;17.798;2023-04-24T04:37:05;5.70;99.90
12688;DHT22;6408;59.388;17.798;2023-04-24T04:39:32;5.70;99.90
12688;DHT22;6408;59.388;17.798;2023-04-24T04:42:00;5.80;99.90
12688;DHT22;6408;59.388;17.798;2023-04-24T04:44:27;5.80;99.90
12688;DHT22;6408;59.388;17.798;2023-04-24T04:46:56;5.80;99.90
12688;DHT22;6408;59.388;17.798;2023-04-24T04:49:26;5.80;99.90
12688;DHT22;6408;59.388;17.798;2023-04-24T04:51:54;5.80;99.90
12688;DHT22;6408;59.388;17.798;2023-04-24T04:54:22;5.80;99.90
12688;DHT22;6408;59.388;17.798;2023-04-24T04:56:50;5.80;99.90
12688;DHT22;6408;59.388;17.798;2023-04-24T04:59:17;5.90;99.90
12688;DHT22;6408;59.388;17.798;2023-04-24T05:01:45;5.80;99.90
12688;DHT22;6408;59.388;17.798;2023-04-24T05:04:12;5.80;99.90
12688;DHT22;6408;59.388;17.798;2023-04-24T05:06:42;5.90;99.90
12688;DHT22;6408;59.388;17.798;2023-04-24T05:09:09;5.90;99.90
12688;DHT22;6408;59.388;17.798;2023-04-24T05:11:37;5.90;99.90
12688;DHT22;6408;59.388;17.798;2023-04-24T05:14:04;5.90;99.90
12688;DHT22;6408;59.388;17.798;2023-04-24T05:16:32;5.90;99.90
12688;DHT22;6408;59.388;17.798;2023-04-24T05:18:59;5.90;99.90
12688;DHT22;6408;59.388;17.798;2023-04-24T05:21:27;5.90;99.90
12688;DHT22;6408;59.388;17.798;2023-04-24T05:23:56;5.90;99.90
12688;DHT22;6408;59.388;17.798;2023-04-24T05:26:24;5.80;99.90
12688;DHT22;6408;59.388;17.798;2023-04-24T05:28:51;5.90;99.90
12688;DHT22;6408;59.388;17.798;2023-04-24T05:31:19;5.80;99.90
12688;DHT22;6408;59.388;17.798;2023-04-24T05:33:46;5.80;99.90
12688;DHT22;6408;59.388;17.798;2023-04-24T05:36:14;5.70;99.90
12688;DHT22;6408;59.388;17.798;2023-04-24T05:38:41;5.80;99.90
12688;DHT22;6408;59.388;17.798;2023-04-24T05:41:10;5.70;99.90
12688;DHT22;6408;59.388;17.798;2023-04-24T05:43:38;5.70;99.90
12688;DHT22;6408;59.388;17.798;2023-04-24T05:46:05;5.80;99.90
12688;DHT22;6408;59.388;17.798;2023-04-24T05:48:33;5.70;99.90
12688;DHT22;6408;59.388;17.798;2023-04-24T05:51:00;5.70;99.90
12688;DHT22;6408;59.388;17.798;2023-04-24T05:53:28;5.70;99.90
12688;DHT22;6408;59.388;17.798;2023-04-24T05:55:56;5.70;99.90
12688;DHT22;6408;59.388;17.798;2023-04-24T05:58:25;5.70;99.90
12688;DHT22;6408;59.388;17.798;2023-04-24T06:00:52;5.80;99.90
12688;DHT22;6408;59.388;17.798;2023-04-24T06:03:20;5.80;99.90
12688;DHT22;6408;59.388;17.798;2023-04-24T06:05:49;5.90;99.90
12688;DHT22;6408;59.388;17.798;2023-04-24T06:08:17;5.80;99.90
12688;DHT22;6408;59.388;17.798;2023-04-24T06:10:45;5.80;99.90
12688;DHT22;6408;59.388;17.798;2023-04-24T06:13:12;5.80;99.90
12688;DHT22;6408;59.388;17.798;2023-04-24T06:15:42;5.70;99.90
12688;DHT22;6408;59.388;17.798;2023-04-24T06:18:09;5.80;99.90
12688;DHT22;6408;59.388;17.798;2023-04-24T06:20:38;5.80;99.90
12688;DHT22;6408;59.388;17.798;2023-04-24T06:23:05;5.80;99.90
12688;DHT22;6408;59.388;17.798;2023-04-24T06:25:33;5.80;99.90
12688;DHT22;6408;59.388;17.798;2023-04-24T06:28:00;5.80;99.90
12688;DHT22;6408;59.388;17.798;2023-04-24T06:30:28;5.90;99.90
12688;DHT22;6408;59.388;17.798;2023-04-24T06:32:57;5.90;99.90
12688;DHT22;6408;59.388;17.798;2023-04-24T06:35:25;5.90;99.90
12688;DHT22;6408;59.388;17.798;2023-04-24T06:37:52;5.90;99.90
12688;DHT22;6408;59.388;17.798;2023-04-24T06:40:21;6.00;99.90
12688;DHT22;6408;59.388;17.798;2023-04-24T06:42:50;6.00;99.90
12688;DHT22;6408;59.388;17.798;2023-04-24T06:45:17;6.00;99.90
12688;DHT22;6408;59.388;17.798;2023-04-24T06:47:45;6.00;99.90
12688;DHT22;6408;59.388;17.798;2023-04-24T06:50:14;6.10;99.90
12688;DHT22;6408;59.388;17.798;2023-04-24T06:52:42;6.10;99.90
12688;DHT22;6408;59.388;17.798;2023-04-24T06:55:10;5.90;99.90
12688;DHT22;6408;59.388;17.798;2023-04-24T06:57:38;5.80;99.90
12688;DHT22;6408;59.388;17.798;2023-04-24T07:00:07;5.80;99.90
12688;DHT22;6408;59.388;17.798;2023-04-24T07:02:35;5.80;99.90
12688;DHT22;6408;59.388;17.798;2023-04-24T07:05:03;5.60;99.90
12688;DHT22;6408;59.388;17.798;2023-04-24T07:07:32;5.70;99.90
12688;DHT22;6408;59.388;17.798;2023-04-24T07:10:00;5.70;99.90
12688;DHT22;6408;59.388;17.798;2023-04-24T07:12:29;5.70;99.90
12688;DHT22;6408;59.388;17.798;2023-04-24T07:14:57;5.60;99.90
12688;DHT22;6408;59.388;17.798;2023-04-24T07:17:25;5.60;99.90
12688;DHT22;6408;59.388;17.798;2023-04-24T07:19:53;5.70;99.90
12688;DHT22;6408;59.388;17.798;2023-04-24T07:22:20;5.60;99.90
12688;DHT22;6408;59.388;17.798;2023-04-24T07:24:50;5.60;99.90
12688;DHT22;6408;59.388;17.798;2023-04-24T07:27:17;5.60;99.90
12688;DHT22;6408;59.388;17.798;2023-04-24T07:29:45;5.70;99.90
12688;DHT22;6408;59.388;17.798;2023-04-24T07:32:12;5.60;99.90
12688;DHT22;6408;59.388;17.798;2023-04-24T07:34:40;5.70;99.90
12688;DHT22;6408;59.388;17.798;2023-04-24T07:37:07;5.80;99.90
12688;DHT22;6408;59.388;17.798;2023-04-24T07:39:35;5.90;99.90
12688;DHT22;6408;59.388;17.798;2023-04-24T07:42:04;5.90;99.90
12688;DHT22;6408;59.388;17.798;2023-04-24T07:44:32;5.90;99.90
12688;DHT22;6408;59.388;17.798;2023-04-24T07:46:59;5.90;99.90
12688;DHT22;6408;59.388;17.798;2023-04-24T07:49:27;5.90;99.90
12688;DHT22;6408;59.388;17.798;2023-04-24T07:51:54;6.00;99.90
12688;DHT22;6408;59.388;17.798;2023-04-24T07:54:22;6.00;99.90
12688;DHT22;6408;59.388;17.798;2023-04-24T07:56:49;6.00;99.90
12688;DHT22;6408;59.388;17.798;2023-04-24T07:59:18;6.10;99.90
12688;DHT22;6408;59.388;17.798;2023-04-24T08:01:46;6.10;99.90
12688;DHT22;6408;59.388;17.798;2023-04-24T08:04:14;6.00;99.90
12688;DHT22;6408;59.388;17.798;2023-04-24T08:06:41;6.10;99.90
12688;DHT22;6408;59.388;17.798;2023-04-24T08:09:09;6.00;99.90
12688;DHT22;6408;59.388;17.798;2023-04-24T08:11:36;6.10;99.90
12688;DHT22;6408;59.388;17.798;2023-04-24T08:14:04;6.20;99.90
12688;DHT22;6408;59.388;17.798;2023-04-24T08:16:34;6.20;99.90
12688;DHT22;6408;59.388;17.798;2023-04-24T08:19:02;6.30;99.90
12688;DHT22;6408;59.388;17.798;2023-04-24T08:21:29;6.30;99.90
12688;DHT22;6408;59.388;17.798;2023-04-24T08:23:57;6.30;99.90
12688;DHT22;6408;59.388;17.798;2023-04-24T08:26:24;6.30;99.90
12688;DHT22;6408;59.388;17.798;2023-04-24T08:28:52;6.10;99.90
12688;DHT22;6408;59.388;17.798;2023-04-24T08:31:20;6.10;99.90
12688;DHT22;6408;59.388;17.798;2023-04-24T08:33:49;6.10;99.90
12688;DHT22;6408;59.388;17.798;2023-04-24T08:36:17;6.20;99.90
12688;DHT22;6408;59.388;17.798;2023-04-24T08:38:44;6.30;99.90
12688;DHT22;6408;59.388;17.798;2023-04-24T08:41:14;6.30;99.90
12688;DHT22;6408;59.388;17.798;2023-04-24T08:43:42;6.40;99.90
12688;DHT22;6408;59.388;17.798;2023-04-24T08:46:10;6.40;99.90
12688;DHT22;6408;59.388;17.798;2023-04-24T08:48:40;6.50;99.90
12688;DHT22;6408;59.388;17.798;2023-04-24T08:51:09;6.60;99.90
12688;DHT22;6408;59.388;17.798;2023-04-24T08:53:37;6.60;99.90
12688;DHT22;6408;59.388;17.798;2023-04-24T08:56:04;6.60;99.90
12688;DHT22;6408;59.388;17.798;2023-04-24T08:58:33;6.60;99.90
12688;DHT22;6408;59.388;17.798;2023-04-24T09:01:00;6.70;99.90
12688;DHT22;6408;59.388;17.798;2023-04-24T09:03:30;6.80;99.90
12688;DHT22;6408;59.388;17.798;2023-04-24T09:05:59;6.80;99.90
12688;DHT22;6408;59.388;17.798;2023-04-24T09:08:28;6.90;99.90
12688;DHT22;6408;59.388;17.798;2023-04-24T09:10:56;7.00;99.90
12688;DHT22;6408;59.388;17.798;2023-04-24T09:13:28;7.00;99.90
12688;DHT22;6408;59.388;17.798;2023-04-24T09:15:55;7.00;99.90
12688;DHT22;6408;59.388;17.798;2023-04-24T09:18:26;7.00;99.90
12688;DHT22;6408;59.388;17.798;2023-04-24T09:21:01;7.20;99.90
12688;DHT22;6408;59.388;17.798;2023-04-24T09:23:31;7.20;99.90
12688;DHT22;6408;59.388;17.798;2023-04-24T09:26:00;7.20;99.90
12688;DHT22;6408;59.388;17.798;2023-04-24T09:28:30;7.20;99.90
12688;DHT22;6408;59.388;17.798;2023-04-24T09:31:05;7.20;99.90
12688;DHT22;6408;59.388;17.798;2023-04-24T09:33:33;7.20;99.90
12688;DHT22;6408;59.388;17.798;2023-04-24T09:36:02;7.30;99.90
12688;DHT22;6408;59.388;17.798;2023-04-24T09:38:38;7.20;99.90
12688;DHT22;6408;59.388;17.798;2023-04-24T09:41:07;7.10;99.90
12688;DHT22;6408;59.388;17.798;2023-04-24T09:43:35;7.10;99.90
12688;DHT22;6408;59.388;17.798;2023-04-24T09:46:05;7.00;99.90
12688;DHT22;6408;59.388;17.798;2023-04-24T09:48:35;7.00;99.90
12688;DHT22;6408;59.388;17.798;2023-04-24T09:51:04;6.90;99.90
12688;DHT22;6408;59.388;17.798;2023-04-24T09:53:37;6.90;99.90
12688;DHT22;6408;59.388;17.798;2023-04-24T09:56:08;6.70;99.90
12688;DHT22;6408;59.388;17.798;2023-04-24T09:58:36;6.70;99.90
12688;DHT22;6408;59.388;17.798;2023-04-24T10:01:04;6.70;99.90
12688;DHT22;6408;59.388;17.798;2023-04-24T10:03:33;6.70;99.90
12688;DHT22;6408;59.388;17.798;2023-04-24T10:06:01;6.60;99.90
12688;DHT22;6408;59.388;17.798;2023-04-24T10:08:34;6.70;99.90
12688;DHT22;6408;59.388;17.798;2023-04-24T10:11:03;6.80;99.90
12688;DHT22;6408;59.388;17.798;2023-04-24T10:13:32;6.80;99.90
12688;DHT22;6408;59.388;17.798;2023-04-24T10:16:00;6.90;99.90
12688;DHT22;6408;59.388;17.798;2023-04-24T10:18:28;7.00;99.90
12688;DHT22;6408;59.388;17.798;2023-04-24T10:20:56;7.10;99.90
12688;DHT22;6408;59.388;17.798;2023-04-24T10:23:25;7.10;99.90
12688;DHT22;6408;59.388;17.798;2023-04-24T10:25:52;7.10;99.90
12688;DHT22;6408;59.388;17.798;2023-04-24T10:28:24;7.20;99.90
12688;DHT22;6408;59.388;17.798;2023-04-24T10:30:54;7.20;99.90
12688;DHT22;6408;59.388;17.798;2023-04-24T10:33:23;7.30;99.90
12688;DHT22;6408;59.388;17.798;2023-04-24T10:35:51;7.30;99.90
12688;DHT22;6408;59.388;17.798;2023-04-24T10:38:24;7.30;99.90
12688;DHT22;6408;59.388;17.798;2023-04-24T10:40:57;7.40;99.90
12688;DHT22;6408;59.388;17.798;2023-04-24T10:43:35;7.30;99.90
12688;DHT22;6408;59.388;17.798;2023-04-24T10:46:04;7.40;99.90
12688;DHT22;6408;59.388;17.798;2023-04-24T10:48:32;7.40;99.90
12688;DHT22;6408;59.388;17.798;2023-04-24T10:50:59;7.40;99.90
12688;DHT22;6408;59.388;17.798;2023-04-24T10:53:28;7.30;99.90
12688;DHT22;6408;59.388;17.798;2023-04-24T10:56:03;7.20;99.90
12688;DHT22;6408;59.388;17.798;2023-04-24T10:58:41;7.20;99.90
12688;DHT22;6408;59.388;17.798;2023-04-24T11:01:23;7.10;99.90
12688;DHT22;6408;59.388;17.798;2023-04-24T11:03:56;7.20;99.90
12688;DHT22;6408;59.388;17.798;2023-04-24T11:06:30;7.30;99.90
12688;DHT22;6408;59.388;17.798;2023-04-24T11:09:03;7.30;99.90
12688;DHT22;6408;59.388;17.798;2023-04-24T11:11:32;7.40;99.90
12688;DHT22;6408;59.388;17.798;2023-04-24T11:14:08;7.60;99.90
12688;DHT22;6408;59.388;17.798;2023-04-24T11:16:44;7.60;99.90
12688;DHT22;6408;59.388;17.798;2023-04-24T11:19:21;7.60;99.90
12688;DHT22;6408;59.388;17.798;2023-04-24T11:21:55;7.70;99.90
12688;DHT22;6408;59.388;17.798;2023-04-24T11:24:37;7.80;99.90
12688;DHT22;6408;59.388;17.798;2023-04-24T11:27:07;7.90;99.90
12688;DHT22;6408;59.388;17.798;2023-04-24T11:29:45;8.00;99.90
12688;DHT22;6408;59.388;17.798;2023-04-24T11:32:33;8.00;99.90
12688;DHT22;6408;59.388;17.798;2023-04-24T11:35:03;7.80;99.90
12688;DHT22;6408;59.388;17.798;2023-04-24T11:37:35;7.60;99.90
12688;DHT22;6408;59.388;17.798;2023-04-24T11:40:04;7.60;99.90
12688;DHT22;6408;59.388;17.798;2023-04-24T11:42:36;7.60;99.90
12688;DHT22;6408;59.388;17.798;2023-04-24T11:45:10;7.70;99.90
12688;DHT22;6408;59.388;17.798;2023-04-24T11:47:38;7.70;99.90
12688;DHT22;6408;59.388;17.798;2023-04-24T11:50:08;7.60;99.90
12688;DHT22;6408;59.388;17.798;2023-04-24T11:52:37;7.50;99.90
12688;DHT22;6408;59.388;17.798;2023-04-24T11:55:07;7.50;99.90
12688;DHT22;6408;59.388;17.798;2023-04-24T11:57:35;7.50;99.90
12688;DHT22;6408;59.388;17.798;2023-04-24T12:00:04;7.40;99.90
12688;DHT22;6408;59.388;17.798;2023-04-24T12:02:35;7.40;99.90
12688;DHT22;6408;59.388;17.798;2023-04-24T12:05:02;7.40;99.90
12688;DHT22;6408;59.388;17.798;2023-04-24T12:07:40;7.40;99.90
12688;DHT22;6408;59.388;17.798;2023-04-24T12:10:09;7.40;99.90
12688;DHT22;6408;59.388;17.798;2023-04-24T12:12:36;7.20;99.90
12688;DHT22;6408;59.388;17.798;2023-04-24T12:15:07;7.20;99.90
12688;DHT22;6408;59.388;17.798;2023-04-24T12:17:41;7.20;99.90
12688;DHT22;6408;59.388;17.798;2023-04-24T12:20:09;7.20;99.90
12688;DHT22;6408;59.388;17.798;2023-04-24T12:22:44;7.10;99.90
12688;DHT22;6408;59.388;17.798;2023-04-24T12:25:12;7.20;99.90
12688;DHT22;6408;59.388;17.798;2023-04-24T12:27:40;7.10;99.90
12688;DHT22;6408;59.388;17.798;2023-04-24T12:30:11;7.10;99.90
12688;DHT22;6408;59.388;17.798;2023-04-24T12:32:43;7.00;99.90
12688;DHT22;6408;59.388;17.798;2023-04-24T12:35:11;7.00;99.90
12688;DHT22;6408;59.388;17.798;2023-04-24T12:37:38;7.20;99.90
12688;DHT22;6408;59.388;17.798;2023-04-24T12:40:10;7.30;99.90
12688;DHT22;6408;59.388;17.798;2023-04-24T12:42:43;7.20;99.90
12688;DHT22;6408;59.388;17.798;2023-04-24T12:45:11;7.20;99.90
12688;DHT22;6408;59.388;17.798;2023-04-24T12:47:39;7.20;99.90
12688;DHT22;6408;59.388;17.798;2023-04-24T12:50:11;7.30;99.90
12688;DHT22;6408;59.388;17.798;2023-04-24T12:52:39;7.40;99.90
12688;DHT22;6408;59.388;17.798;2023-04-24T12:55:07;7.40;99.90
12688;DHT22;6408;59.388;17.798;2023-04-24T12:57:36;7.30;99.90
12688;DHT22;6408;59.388;17.798;2023-04-24T13:00:05;7.30;99.90
12688;DHT22;6408;59.388;17.798;2023-04-24T13:02:33;7.40;99.90
12688;DHT22;6408;59.388;17.798;2023-04-24T13:05:01;7.40;99.90
12688;DHT22;6408;59.388;17.798;2023-04-24T13:07:30;7.50;99.90
12688;DHT22;6408;59.388;17.798;2023-04-24T13:09:58;7.40;99.90
12688;DHT22;6408;59.388;17.798;2023-04-24T13:12:26;7.40;99.90
12688;DHT22;6408;59.388;17.798;2023-04-24T13:14:53;7.40;99.90
12688;DHT22;6408;59.388;17.798;2023-04-24T13:17:21;7.50;99.90
12688;DHT22;6408;59.388;17.798;2023-04-24T13:19:50;7.50;99.90
12688;DHT22;6408;59.388;17.798;2023-04-24T13:22:18;7.40;99.90
12688;DHT22;6408;59.388;17.798;2023-04-24T13:24:47;7.30;99.90
12688;DHT22;6408;59.388;17.798;2023-04-24T13:27:16;7.20;99.90
12688;DHT22;6408;59.388;17.798;2023-04-24T13:29:44;7.00;99.90
12688;DHT22;6408;59.388;17.798;2023-04-24T13:32:11;6.90;99.90
12688;DHT22;6408;59.388;17.798;2023-04-24T13:34:39;6.80;99.90
12688;DHT22;6408;59.388;17.798;2023-04-24T13:37:06;6.80;99.90
12688;DHT22;6408;59.388;17.798;2023-04-24T13:39:34;6.90;99.90
12688;DHT22;6408;59.388;17.798;2023-04-24T13:42:03;6.80;99.90
12688;DHT22;6408;59.388;17.798;2023-04-24T13:44:31;6.70;99.90
12688;DHT22;6408;59.388;17.798;2023-04-24T13:46:59;6.80;99.90
12688;DHT22;6408;59.388;17.798;2023-04-24T13:49:27;6.80;99.90
12688;DHT22;6408;59.388;17.798;2023-04-24T13:51:55;6.80;99.90
12688;DHT22;6408;59.388;17.798;2023-04-24T13:54:23;6.80;99.90
12688;DHT22;6408;59.388;17.798;2023-04-24T13:56:51;6.80;99.90
12688;DHT22;6408;59.388;17.798;2023-04-24T13:59:21;6.80;99.90
12688;DHT22;6408;59.388;17.798;2023-04-24T14:01:48;6.80;99.90
12688;DHT22;6408;59.388;17.798;2023-04-24T14:04:16;6.80;99.90
12688;DHT22;6408;59.388;17.798;2023-04-24T14:06:43;6.60;99.90
12688;DHT22;6408;59.388;17.798;2023-04-24T14:09:11;6.50;99.90
12688;DHT22;6408;59.388;17.798;2023-04-24T14:11:39;6.50;99.90
12688;DHT22;6408;59.388;17.798;2023-04-24T14:14:06;6.50;99.90
12688;DHT22;6408;59.388;17.798;2023-04-24T14:16:36;6.60;99.90
12688;DHT22;6408;59.388;17.798;2023-04-24T14:19:04;6.60;99.90
12688;DHT22;6408;59.388;17.798;2023-04-24T14:21:32;6.60;99.90
12688;DHT22;6408;59.388;17.798;2023-04-24T14:24:00;6.50;99.90
12688;DHT22;6408;59.388;17.798;2023-04-24T14:26:27;6.40;99.90
12688;DHT22;6408;59.388;17.798;2023-04-24T14:28:55;6.40;99.90
12688;DHT22;6408;59.388;17.798;2023-04-24T14:31:24;6.20;99.90
12688;DHT22;6408;59.388;17.798;2023-04-24T14:33:53;6.30;99.90
12688;DHT22;6408;59.388;17.798;2023-04-24T14:36:21;6.30;99.90
12688;DHT22;6408;59.388;17.798;2023-04-24T14:38:49;6.20;99.90
12688;DHT22;6408;59.388;17.798;2023-04-24T14:41:16;6.20;99.90
12688;DHT22;6408;59.388;17.798;2023-04-24T14:43:44;6.30;99.90
12688;DHT22;6408;59.388;17.798;2023-04-24T14:46:11;6.30;99.90
12688;DHT22;6408;59.388;17.798;2023-04-24T14:48:39;6.20;99.90
12688;DHT22;6408;59.388;17.798;2023-04-24T14:51:08;6.10;99.90
12688;DHT22;6408;59.388;17.798;2023-04-24T14:53:36;6.10;99.90
12688;DHT22;6408;59.388;17.798;2023-04-24T14:56:03;6.10;99.90
12688;DHT22;6408;59.388;17.798;2023-04-24T14:58:31;6.00;99.90
12688;DHT22;6408;59.388;17.798;2023-04-24T15:00:59;6.00;99.90
12688;DHT22;6408;59.388;17.798;2023-04-24T15:03:26;6.00;99.90
12688;DHT22;6408;59.388;17.798;2023-04-24T15:05:54;5.90;99.90
12688;DHT22;6408;59.388;17.798;2023-04-24T15:08:23;5.70;99.90
12688;DHT22;6408;59.388;17.798;2023-04-24T15:10:51;5.70;99.90
12688;DHT22;6408;59.388;17.798;2023-04-24T15:13:19;5.80;99.90
12688;DHT22;6408;59.388;17.798;2023-04-24T15:15:46;5.80;99.90
12688;DHT22;6408;59.388;17.798;2023-04-24T15:18:14;5.80;99.90
12688;DHT22;6408;59.388;17.798;2023-04-24T15:20:41;5.80;99.90
12688;DHT22;6408;59.388;17.798;2023-04-24T15:23:09;5.80;99.90
12688;DHT22;6408;59.388;17.798;2023-04-24T15:25:39;6.00;99.90
12688;DHT22;6408;59.388;17.798;2023-04-24T15:28:06;6.00;99.90
12688;DHT22;6408;59.388;17.798;2023-04-24T15:30:33;6.00;99.90
12688;DHT22;6408;59.388;17.798;2023-04-24T15:33:01;5.90;99.90
12688;DHT22;6408;59.388;17.798;2023-04-24T15:35:29;5.90;99.90
12688;DHT22;6408;59.388;17.798;2023-04-24T15:37:56;6.00;99.90
12688;DHT22;6408;59.388;17.798;2023-04-24T15:40:24;5.90;99.90
12688;DHT22;6408;59.388;17.798;2023-04-24T15:42:53;5.80;99.90
12688;DHT22;6408;59.388;17.798;2023-04-24T15:45:21;5.80;99.90
12688;DHT22;6408;59.388;17.798;2023-04-24T15:47:49;5.60;99.90
12688;DHT22;6408;59.388;17.798;2023-04-24T15:50:17;5.60;99.90
12688;DHT22;6408;59.388;17.798;2023-04-24T15:52:47;5.70;99.90